METAR Data
IDs: Format: Raw Decoded Include TAF

Data at: 0904 UTC 26 Jan 2020

KPDC 260855Z AUTO 27007KT 10SM SCT014 SCT030 OVC043 M01/M04 A2996 RMK AO2 T10121041
KPDC 260835Z AUTO 28008KT 10SM OVC043 M01/M04 A2996 RMK AO2 T10121041
KPDC 260815Z AUTO 28007KT 10SM SCT031 OVC043 M01/M04 A2996 RMK AO2 T10111040
KPDC 260755Z AUTO 27008KT 10SM BKN033 OVC045 M01/M04 A2996 RMK AO2 T10101041
KPDC 260735Z AUTO 27010KT 10SM OVC033 M01/M04 A2996 RMK AO2 T10111040
KPDC 260715Z AUTO 27010KT 10SM SCT012 SCT018 OVC033 M01/M04 A2996 RMK AO2 T10101038
KPDC 260655Z AUTO 28008KT 10SM OVC015 M01/M04 A2997 RMK AO2 T10101040
KPDC 260635Z AUTO 27007KT 10SM OVC017 M01/M04 A2997 RMK AO2 T10081037
KPDC 260615Z AUTO 28008KT 10SM BKN017 BKN021 OVC043 M01/M04 A2996 RMK AO2 T10061037
KPDC 260555Z AUTO 27007KT 10SM SCT017 OVC043 00/M03 A2996 RMK AO2 T10051035 10006 21005 400131005
KPDC 260535Z AUTO 27006KT 10SM BKN015 OVC043 00/M03 A2996 RMK AO2 T10051035
KPDC 260515Z AUTO 28005KT 10SM OVC015 00/M03 A2995 RMK AO2 T10041035
KPDC 260455Z AUTO 28005KT 10SM BKN015 OVC037 00/M03 A2995 RMK AO2 T10031033
KPDC 260435Z AUTO 27006KT 10SM OVC015 00/M03 A2995 RMK AO2 T10021034
KPDC 260415Z AUTO 27006KT 10SM OVC015 00/M03 A2995 RMK AO2 T10021033
KPDC 260355Z AUTO 26005KT 10SM OVC015 00/M03 A2995 RMK AO2 T10011030
KPDC 260335Z AUTO 26005KT 7SM -SN OVC015 00/M03 A2995 RMK AO2 T00001027
KPDC 260315Z AUTO 26005KT 10SM OVC017 00/M03 A2994 RMK AO2 T00001027
KPDC 260255Z AUTO 27006KT 10SM OVC017 00/M03 A2994 RMK AO2 T00001027
KPDC 260235Z AUTO 26006KT 10SM OVC017 00/M03 A2993 RMK AO2 T00001026
KPDC 260215Z AUTO 25005KT 10SM OVC017 00/M03 A2994 RMK AO2 T00021026
KPDC 260155Z AUTO 25004KT 10SM OVC017 00/M02 A2993 RMK AO2 T00041025
KPDC 260135Z AUTO 00000KT 10SM OVC017 00/M02 A2993 RMK AO2 T00031025
KPDC 260115Z AUTO 25003KT 10SM OVC017 00/M02 A2993 RMK AO2 T00031024
KPDC 260055Z AUTO 26004KT 10SM OVC017 00/M02 A2992 RMK AO2 T00031025
KPDC 260035Z AUTO 28005KT 10SM OVC017 01/M02 A2992 RMK AO2 T00051024
KPDC 260015Z AUTO 27008KT 10SM OVC019 01/M02 A2992 RMK AO2 T00051024
KPDC 252355Z AUTO 27004KT 10SM OVC019 01/M02 A2992 RMK AO2 T00051023 10010 20005
KPDC 252335Z AUTO 29006KT 10SM OVC019 01/M02 A2992 RMK AO2 T00071024
KPDC 252315Z AUTO 29009KT 10SM OVC019 01/M02 A2991 RMK AO2 T00081025
KPDC 252255Z AUTO 28008KT 10SM OVC019 01/M02 A2991 RMK AO2 T00091025
KPDC 252235Z AUTO 27008KT 10SM BKN019 BKN035 OVC042 01/M02 A2990 RMK AO2 T00101023
KPDC 252215Z AUTO 28007KT 10SM OVC017 01/M02 A2989 RMK AO2 T00101021
KPDC 252155Z AUTO 28007KT 10SM OVC015 01/M02 A2989 RMK AO2 T00091021
KPDC 252135Z AUTO 29009KT 10SM OVC015 01/M02 A2989 RMK AO2 T00101020
KPDC 252115Z AUTO 29009KT 10SM OVC015 01/M02 A2989 RMK AO2 T00101020
KPDC 252055Z AUTO 29011KT 10SM OVC015 01/M02 A2988 RMK AO2 T00101021
KPDC 252035Z AUTO 29011KT 10SM OVC015 01/M02 A2988 RMK AO2 T00101020
KPDC 252015Z AUTO 30009KT 7SM OVC017 01/M02 A2988 RMK AO2 T00081019
KPDC 251955Z AUTO 29013KT 10SM OVC017 01/M02 A2988 RMK AO2 T00091022
KPDC 251935Z AUTO 29012G17KT 10SM OVC017 01/M02 A2988 RMK AO2 T00101025
KPDC 251915Z AUTO 30010KT 10SM OVC017 01/M02 A2989 RMK AO2 T00101025
KPDC 251855Z AUTO 30009G17KT 10SM OVC017 01/M02 A2989 RMK AO2 T00081025
KPDC 251835Z AUTO 30012G16KT 10SM OVC017 01/M02 A2989 RMK AO2 T00071025
KPDC 251815Z AUTO 30010KT 10SM OVC015 01/M02 A2989 RMK AO2 T00061025
KPDC 251755Z AUTO 28007KT 10SM OVC015 01/M02 A2989 RMK AO2 T00051025 10007 20002
KPDC 251735Z AUTO 29009KT 10SM OVC015 01/M02 A2990 RMK AO2 T00051025
KPDC 251715Z AUTO 29008KT 10SM OVC015 01/M02 A2990 RMK AO2 T00051021
KPDC 251655Z AUTO 30008KT 10SM OVC015 01/M02 A2990 RMK AO2 T00051023
KPDC 251635Z AUTO 30010KT 10SM OVC015 01/M02 A2990 RMK AO2 T00051022
KPDC 251615Z AUTO 29010G15KT 10SM OVC015 01/M02 A2989 RMK AO2 T00051022
KPDC 251555Z AUTO 28007KT 10SM OVC013 01/M02 A2989 RMK AO2 T00051022
KPDC 251535Z AUTO 30008KT 10SM OVC013 00/M02 A2989 RMK AO2 T00031022
KPDC 251515Z AUTO 30008KT 10SM OVC013 00/M02 A2988 RMK AO2 T00031020
KPDC 251455Z AUTO 29010KT 10SM OVC013 00/M02 A2988 RMK AO2 T00031019
KPDC 251435Z AUTO 29008KT 10SM OVC013 01/M02 A2988 RMK AO2 T00051017
KPDC 251415Z AUTO 29010KT 10SM OVC013 01/M02 A2988 RMK AO2 T00051017
KPDC 251355Z AUTO 31007KT 10SM OVC013 01/M02 A2988 RMK AO2 T00051017
KPDC 251335Z AUTO 29005KT 10SM OVC013 01/M02 A2987 RMK AO2 T00061016
KPDC 251315Z AUTO 30009KT 10SM OVC013 01/M02 A2987 RMK AO2 T00061017
KPDC 251255Z AUTO 31009KT 10SM OVC011 01/M01 A2986 RMK AO2 T00061015
KPDC 251235Z AUTO 30010KT 10SM OVC011 01/M01 A2986 RMK AO2 T00071014
KPDC 251215Z AUTO 29009KT 10SM OVC011 01/M01 A2986 RMK AO2 T00071011
KPDC 251155Z AUTO 30009KT 10SM OVC011 01/M01 A2986 RMK AO2 70020 T00071010 10013 20006
KPDC 251135Z AUTO 29006KT 10SM OVC009 01/M01 A2986 RMK AO2 T00071010
KPDC 251115Z AUTO 30008KT 10SM OVC009 01/M01 A2985 RMK AO2 T00081010
KPDC 251055Z AUTO 29009KT 10SM OVC009 01/M01 A2985 RMK AO2 T00081008
KPDC 251035Z AUTO 30007KT 10SM OVC009 01/M01 A2985 RMK AO2 T00081007
KPDC 251015Z AUTO 30007KT 10SM OVC009 01/M01 A2985 RMK AO2 T00081006
KPDC 250955Z AUTO 30009KT 10SM OVC009 01/00 A2984 RMK AO2 T00091005
KPDC 250935Z AUTO 29007KT 10SM OVC009 01/00 A2984 RMK AO2 T00101005
KPDC 250915Z AUTO 30008KT 10SM OVC009 01/00 A2985 RMK AO2 T00101005
KPDC 250855Z AUTO 29008KT 10SM OVC011 01/00 A2985 RMK AO2 T00111005
KPDC 250835Z AUTO 29007KT 10SM OVC011 01/00 A2985 RMK AO2 T00121005
KPDC 250815Z AUTO 29008KT 10SM OVC011 01/00 A2985 RMK AO2 T00121005
KPDC 250755Z AUTO 29006KT 10SM OVC011 01/00 A2985 RMK AO2 T00111004
KPDC 250735Z AUTO 30006KT 10SM OVC009 01/00 A2985 RMK AO2 T00121003
KPDC 250715Z AUTO 31006KT 10SM OVC009 01/00 A2985 RMK AO2 T00121003
KPDC 250655Z AUTO 30006KT 10SM OVC009 01/00 A2985 RMK AO2 T00121002
KPDC 250635Z AUTO 31006KT 10SM OVC009 01/00 A2986 RMK AO2 T00111002
KPDC 250615Z AUTO 31006KT 10SM OVC009 01/00 A2985 RMK AO2 T00111002
KPDC 250555Z AUTO 31008KT 10SM OVC009 01/00 A2986 RMK AO2 60001 T00121001 10015 20011 400151005
KPDC 250535Z AUTO 30007KT 10SM OVC009 01/00 A2986 RMK AO2 T00111001
KPDC 250515Z AUTO 30006KT 10SM OVC009 01/00 A2987 RMK AO2 T00121001
KPDC 250455Z AUTO 30005KT 10SM OVC009 01/00 A2987 RMK AO2 T00121001
KPDC 250435Z AUTO 31005KT 10SM OVC009 01/00 A2986 RMK AO2 T00121002
KPDC 250415Z AUTO 31004KT 10SM OVC009 01/00 A2986 RMK AO2 T00111001
KPDC 250355Z AUTO 33007KT 10SM OVC009 01/00 A2986 RMK AO2 T00131002
KPDC 250335Z AUTO 33006KT 10SM OVC009 01/00 A2987 RMK AO2 T00141001
KPDC 250315Z AUTO 33007KT 10SM OVC009 01/00 A2987 RMK AO2 T00131001
KPDC 250255Z AUTO 32004KT 10SM OVC009 01/00 A2987 RMK AO2 60001 T00121001
KPDC 250235Z AUTO 32005KT 10SM OVC009 01/00 A2987 RMK AO2 T00111001
KPDC 250215Z AUTO 32005KT 10SM OVC009 01/00 A2987 RMK AO2 T00111001
KPDC 250155Z AUTO 32004KT 10SM OVC009 01/00 A2987 RMK AO2 T00111001
KPDC 250135Z AUTO 31006KT 10SM OVC009 01/00 A2987 RMK AO2 T00111001
KPDC 250115Z AUTO 31005KT 10SM OVC009 01/00 A2988 RMK AO2 T00111001
KPDC 250055Z AUTO 33005KT 10SM OVC009 01/00 A2988 RMK AO2 P0001 T00121001
KPDC 250035Z AUTO 33005KT 10SM OVC009 01/00 A2987 RMK AO2 P0001 T00121001
KPDC 250015Z AUTO 31006KT 10SM OVC009 01/00 A2987 RMK AO2 T00121001
KPDC 242355Z AUTO 32004KT 10SM OVC009 01/00 A2987 RMK AO2 60013 T00121001 10015 20006
KPDC 242335Z AUTO 32006KT 10SM OVC011 01/00 A2987 RMK AO2 T00121002
KPDC 242315Z AUTO 32004KT 10SM OVC011 01/00 A2986 RMK AO2 T00121001
KPDC 242255Z AUTO 32007KT 7SM OVC011 01/00 A2986 RMK AO2 P0001 T00121001
KPDC 242235Z AUTO 32006KT 7SM OVC011 02/00 A2986 RMK AO2 P0001 T00151001
KPDC 242215Z AUTO 33007KT 7SM OVC011 02/00 A2987 RMK AO2 P0001 T00151001
KPDC 242155Z AUTO 33006KT 7SM OVC011 02/00 A2986 RMK AO2 P0002 T00151001
KPDC 242135Z AUTO 32005KT 7SM OVC011 02/00 A2986 RMK AO2 P0002 T00150000
KPDC 242115Z AUTO 32007KT 5SM BR OVC011 01/00 A2986 RMK AO2 P0001 T00120000